Time;durP1;ratioP1;P1;durP2;ratioP2;P2;SDS_P1;SDS_P2;PMS_P1;PMS_P2;Temp;Humidity;BMP_temperature;BMP_pressure;BME280_temperature;BME280_humidity;BME280_pressure;Samples;Min_cycle;Max_cycle;Signal;HPM_P1;HPM_P2
2022/09/28 00:02:14;;;;;;;0.20;0.20;;;;;;;;;;5069076;28;20086;-68
2022/09/28 00:04:41;;;;;;;0.47;0.30;;;;;;;;;;5067954;28;20067;-68
2022/09/28 00:07:08;;;;;;;0.00;0.00;;;;;;;;;;5068940;28;20032;-68
2022/09/28 00:09:34;;;;;;;0.93;0.60;;;;;;;;;;5072994;28;20090;-68
2022/09/28 00:12:01;;;;;;;0.20;0.20;;;;;;;;;;5073466;28;20407;-68
2022/09/28 00:14:31;;;;;;;0.20;0.20;;;;;;;;;;5073191;28;20020;-68
2022/09/28 00:16:57;;;;;;;0.20;0.20;;;;;;;;;;5072734;28;20017;-69
2022/09/28 00:19:24;;;;;;;0.00;0.00;;;;;;;;;;5073337;28;20035;-68
2022/09/28 00:21:51;;;;;;;0.33;0.30;;;;;;;;;;5068831;28;20028;-68
2022/09/28 00:24:18;;;;;;;0.80;0.23;;;;;;;;;;5068633;28;20518;-68
2022/09/28 00:26:47;;;;;;;0.20;0.20;;;;;;;;;;5067935;28;20489;-68
2022/09/28 00:29:27;;;;;;;0.10;0.10;;;;;;;;;;5067890;28;20044;-68
2022/09/28 00:32:01;;;;;;;0.83;0.30;;;;;;;;;;5054713;28;20353;-68
2022/09/28 00:34:31;;;;;;;12.65;1.05;;;;;;;;;;5073483;28;20016;-68
2022/09/28 00:37:01;;;;;;;0.70;0.30;;;;;;;;;;5072767;28;20048;-68
2022/09/28 00:39:30;;;;;;;0.77;0.53;;;;;;;;;;5067654;28;20056;-68
2022/09/28 00:41:57;;;;;;;0.23;0.20;;;;;;;;;;5053165;28;20438;-68
2022/09/28 00:44:24;;;;;;;0.20;0.13;;;;;;;;;;5048282;28;20357;-68
2022/09/28 00:46:53;;;;;;;0.70;0.60;;;;;;;;;;5048134;28;20056;-68
2022/09/28 00:49:21;;;;;;;0.70;0.50;;;;;;;;;;5048110;28;20028;-68
2022/09/28 00:51:49;;;;;;;0.53;0.30;;;;;;;;;;5059477;28;20036;-68
2022/09/28 00:54:16;;;;;;;0.13;0.10;;;;;;;;;;5072345;28;20021;-68
2022/09/28 00:56:44;;;;;;;0.40;0.33;;;;;;;;;;5072855;28;20030;-68
2022/09/28 00:59:11;;;;;;;0.20;0.17;;;;;;;;;;5072729;28;20554;-68
2022/09/28 01:01:37;;;;;;;0.30;0.30;;;;;;;;;;5072078;28;20059;-68
2022/09/28 01:04:04;;;;;;;0.73;0.40;;;;;;;;;;5072582;28;20058;-68
2022/09/28 01:06:34;;;;;;;6.10;0.50;;;;;;;;;;5067912;28;20102;-68
2022/09/28 01:09:02;;;;;;;0.20;0.20;;;;;;;;;;5067275;28;20032;-68
2022/09/28 01:11:31;;;;;;;0.43;0.30;;;;;;;;;;5067693;28;20020;-68
2022/09/28 01:13:58;;;;;;;0.43;0.40;;;;;;;;;;5067734;28;20024;-68
2022/09/28 01:16:42;;;;;;;0.90;0.67;;;;;;;;;;5070590;28;20066;-68
2022/09/28 01:19:17;;;;;;;1.50;0.63;;;;;;;;;;5072422;28;20021;-67
2022/09/28 01:21:44;;;;;;;0.93;0.70;;;;;;;;;;5072604;28;20024;-68
2022/09/28 01:24:16;;;;;;;1.70;1.03;;;;;;;;;;5072629;28;20032;-68
2022/09/28 01:26:47;;;;;;;1.10;0.77;;;;;;;;;;5072219;28;20017;-68
2022/09/28 01:29:19;;;;;;;0.50;0.33;;;;;;;;;;5067177;28;20473;-68
2022/09/28 01:31:50;;;;;;;2.90;0.53;;;;;;;;;;5067494;28;20111;-68
2022/09/28 01:34:28;;;;;;;0.30;0.30;;;;;;;;;;5067265;28;20024;-68
2022/09/28 01:36:56;;;;;;;0.30;0.30;;;;;;;;;;5067657;28;20552;-67
2022/09/28 01:39:33;;;;;;;0.60;0.37;;;;;;;;;;5067759;28;20017;-68
2022/09/28 01:42:03;;;;;;;1.30;0.50;;;;;;;;;;5052258;28;20021;-67
2022/09/28 01:44:31;;;;;;;1.00;0.67;;;;;;;;;;5052180;28;20017;-68
2022/09/28 01:47:03;;;;;;;0.73;0.40;;;;;;;;;;5052214;28;20099;-67
2022/09/28 01:49:34;;;;;;;0.17;0.17;;;;;;;;;;5051117;28;20033;-68
2022/09/28 01:52:03;;;;;;;0.53;0.27;;;;;;;;;;5047161;28;20500;-68
2022/09/28 01:54:37;;;;;;;1.90;0.83;;;;;;;;;;5047192;28;20051;-68
2022/09/28 01:57:19;;;;;;;1.10;0.70;;;;;;;;;;5063681;28;20113;-68
2022/09/28 01:59:50;;;;;;;0.40;0.40;;;;;;;;;;5068190;28;20063;-68
2022/09/28 02:02:19;;;;;;;0.47;0.40;;;;;;;;;;5072308;28;20368;-68
2022/09/28 02:04:49;;;;;;;1.60;0.77;;;;;;;;;;5072119;28;20037;-67
2022/09/28 02:07:20;;;;;;;0.20;0.20;;;;;;;;;;5071530;28;20036;-68
2022/09/28 02:09:59;;;;;;;0.40;0.20;;;;;;;;;;5072260;28;20064;-68
2022/09/28 02:12:36;;;;;;;0.73;0.33;;;;;;;;;;5069670;28;20027;-68
2022/09/28 02:15:12;;;;;;;1.00;0.60;;;;;;;;;;5067138;28;20036;-67
2022/09/28 02:17:39;;;;;;;0.20;0.20;;;;;;;;;;5066786;28;20032;-68
2022/09/28 02:20:06;;;;;;;0.80;0.50;;;;;;;;;;5066713;28;20036;-67
2022/09/28 02:22:59;;;;;;;2.10;0.60;;;;;;;;;;5069590;28;20404;-67
2022/09/28 02:25:29;;;;;;;0.50;0.40;;;;;;;;;;5067984;28;20033;-67
2022/09/28 02:28:00;;;;;;;0.30;0.30;;;;;;;;;;5072961;28;20037;-67
2022/09/28 02:30:27;;;;;;;0.63;0.40;;;;;;;;;;5075947;28;20025;-67
2022/09/28 02:32:56;;;;;;;0.40;0.30;;;;;;;;;;5075094;28;20087;-67
2022/09/28 02:35:22;;;;;;;1.27;0.60;;;;;;;;;;5071920;28;20020;-69
2022/09/28 02:37:50;;;;;;;0.20;0.20;;;;;;;;;;5069798;28;20505;-70
2022/09/28 02:40:18;;;;;;;0.30;0.30;;;;;;;;;;5058097;28;20024;-67
2022/09/28 02:42:54;;;;;;;0.27;0.17;;;;;;;;;;5050392;28;20024;-67
2022/09/28 02:45:29;;;;;;;19.93;0.67;;;;;;;;;;5057344;28;20102;-66
2022/09/28 02:48:05;;;;;;;0.37;0.27;;;;;;;;;;5074714;28;20146;-67
2022/09/28 02:50:50;;;;;;;1.57;0.93;;;;;;;;;;5074678;28;20032;-67
2022/09/28 02:53:36;;;;;;;1.17;0.50;;;;;;;;;;5075185;28;20039;-66
2022/09/28 02:56:14;;;;;;;0.47;0.38;;;;;;;;;;5060090;28;20021;-66
2022/09/28 02:58:44;;;;;;;0.20;0.20;;;;;;;;;;5062425;28;20514;-66
2022/09/28 03:01:29;;;;;;;1.03;0.80;;;;;;;;;;5069820;28;20483;-67
2022/09/28 03:04:06;;;;;;;0.80;0.25;;;;;;;;;;5069380;28;20028;-67
2022/09/28 03:06:52;;;;;;;2.00;0.60;;;;;;;;;;5069661;28;20164;-67
2022/09/28 03:09:33;;;;;;;2.83;1.33;;;;;;;;;;5054863;28;20091;-66
2022/09/28 03:12:03;;;;;;;0.63;0.53;;;;;;;;;;5075656;28;20028;-67
2022/09/28 03:14:29;;;;;;;2.07;0.90;;;;;;;;;;5073604;28;20035;-67
2022/09/28 03:16:56;;;;;;;5.80;0.80;;;;;;;;;;5074729;28;20060;-67
2022/09/28 03:19:27;;;;;;;1.13;0.60;;;;;;;;;;5071951;28;20077;-66
2022/09/28 03:21:54;;;;;;;1.13;0.70;;;;;;;;;;5063934;28;20103;-66
2022/09/28 03:24:21;;;;;;;0.53;0.30;;;;;;;;;;5070757;28;20107;-66
2022/09/28 03:26:47;;;;;;;0.70;0.60;;;;;;;;;;5068152;28;20462;-67
2022/09/28 03:29:14;;;;;;;1.00;0.70;;;;;;;;;;5069487;28;20029;-67
2022/09/28 03:31:42;;;;;;;0.20;0.20;;;;;;;;;;5074321;28;20027;-67
2022/09/28 03:34:09;;;;;;;1.83;0.50;;;;;;;;;;5074286;28;20089;-66
2022/09/28 03:36:36;;;;;;;1.70;1.37;;;;;;;;;;5074336;28;20024;-66
2022/09/28 03:39:03;;;;;;;1.03;0.60;;;;;;;;;;5073707;28;20345;-65
2022/09/28 03:41:29;;;;;;;1.30;0.73;;;;;;;;;;5072281;28;20025;-67
2022/09/28 03:43:56;;;;;;;0.63;0.50;;;;;;;;;;5068795;28;20495;-67
2022/09/28 03:46:23;;;;;;;1.13;0.70;;;;;;;;;;5068327;28;20032;-67
2022/09/28 03:48:49;;;;;;;0.77;0.33;;;;;;;;;;5068978;28;20502;-66
2022/09/28 03:51:16;;;;;;;0.30;0.17;;;;;;;;;;5069631;28;20024;-66
2022/09/28 03:53:43;;;;;;;0.30;0.30;;;;;;;;;;5074072;28;20024;-66
2022/09/28 03:56:14;;;;;;;1.40;0.77;;;;;;;;;;5072569;28;20021;-66
2022/09/28 03:58:41;;;;;;;0.30;0.30;;;;;;;;;;5073567;28;20418;-66
2022/09/28 04:01:11;;;;;;;1.13;0.60;;;;;;;;;;5073873;28;20025;-66
2022/09/28 04:03:38;;;;;;;0.60;0.47;;;;;;;;;;5072536;28;20031;-66
2022/09/28 04:06:04;;;;;;;1.30;0.53;;;;;;;;;;5068701;28;20031;-66
2022/09/28 04:08:31;;;;;;;0.13;0.13;;;;;;;;;;5068499;28;20111;-67
2022/09/28 04:10:58;;;;;;;0.63;0.47;;;;;;;;;;5050627;28;20401;-66
2022/09/28 04:13:25;;;;;;;0.10;0.10;;;;;;;;;;5068720;28;20086;-66
2022/09/28 04:15:53;;;;;;;0.83;0.60;;;;;;;;;;5073576;28;20027;-66
2022/09/28 04:18:19;;;;;;;0.20;0.20;;;;;;;;;;5073026;28;20029;-66
2022/09/28 04:20:47;;;;;;;1.53;0.83;;;;;;;;;;5073581;28;20372;-67
2022/09/28 04:23:16;;;;;;;1.33;0.67;;;;;;;;;;5073547;28;20059;-66
2022/09/28 04:25:46;;;;;;;0.77;0.50;;;;;;;;;;5072191;28;20032;-66
2022/09/28 04:30:58;;;;;;;0.30;0.20;;;;;;;;;;5068191;28;20119;-66
2022/09/28 04:33:24;;;;;;;0.97;0.40;;;;;;;;;;5068130;28;20032;-66
2022/09/28 04:35:51;;;;;;;0.33;0.30;;;;;;;;;;5068770;28;20032;-66
2022/09/28 04:38:18;;;;;;;0.73;0.30;;;;;;;;;;5073285;28;20020;-66
2022/09/28 04:40:44;;;;;;;0.90;0.53;;;;;;;;;;5072807;28;20020;-66
2022/09/28 04:43:11;;;;;;;0.50;0.23;;;;;;;;;;5072746;28;20021;-66
2022/09/28 04:45:38;;;;;;;0.87;0.53;;;;;;;;;;5073120;28;20024;-66
2022/09/28 04:48:06;;;;;;;0.30;0.30;;;;;;;;;;5071620;28;20067;-66
2022/09/28 04:50:33;;;;;;;0.67;0.40;;;;;;;;;;5067673;28;20430;-66
2022/09/28 04:53:03;;;;;;;0.40;0.40;;;;;;;;;;5067753;28;20078;-66
2022/09/28 04:55:31;;;;;;;0.73;0.50;;;;;;;;;;5067385;28;20212;-66
2022/09/28 04:58:02;;;;;;;0.70;0.57;;;;;;;;;;5067611;28;21340;-66
2022/09/28 05:00:32;;;;;;;1.20;0.83;;;;;;;;;;5072569;28;20021;-66
2022/09/28 05:02:59;;;;;;;0.50;0.47;;;;;;;;;;5072332;28;20279;-66
2022/09/28 05:05:25;;;;;;;0.20;0.20;;;;;;;;;;5072822;28;20020;-65
2022/09/28 05:07:52;;;;;;;0.40;0.40;;;;;;;;;;5072569;28;20094;-65
2022/09/28 05:10:19;;;;;;;1.40;0.57;;;;;;;;;;5071730;28;20103;-66
2022/09/28 05:12:45;;;;;;;0.93;0.70;;;;;;;;;;5067358;28;20021;-66
2022/09/28 05:15:12;;;;;;;0.37;0.27;;;;;;;;;;5067620;28;20028;-66
2022/09/28 05:17:39;;;;;;;1.03;0.40;;;;;;;;;;5067214;28;20028;-67
2022/09/28 05:20:06;;;;;;;1.33;0.90;;;;;;;;;;5067257;28;20025;-66
2022/09/28 05:22:33;;;;;;;2.50;1.07;;;;;;;;;;5072401;28;20029;-65
2022/09/28 05:25:01;;;;;;;1.53;1.07;;;;;;;;;;5072040;28;20036;-66
2022/09/28 05:27:28;;;;;;;3.60;1.17;;;;;;;;;;5072620;28;20357;-66
2022/09/28 05:29:55;;;;;;;1.00;0.77;;;;;;;;;;5072444;28;20472;-66
2022/09/28 05:32:22;;;;;;;0.70;0.50;;;;;;;;;;5071851;28;20025;-67
2022/09/28 05:34:48;;;;;;;0.80;0.63;;;;;;;;;;5066587;28;20089;-66
2022/09/28 05:37:15;;;;;;;3.17;0.70;;;;;;;;;;5067404;28;20780;-65
2022/09/28 05:39:42;;;;;;;0.20;0.20;;;;;;;;;;5067174;28;20027;-66
2022/09/28 05:42:08;;;;;;;0.67;0.40;;;;;;;;;;5066919;28;20017;-66
2022/09/28 05:44:37;;;;;;;0.40;0.30;;;;;;;;;;5071451;28;20032;-65
2022/09/28 05:47:03;;;;;;;0.40;0.40;;;;;;;;;;5071912;28;20491;-66
2022/09/28 05:49:31;;;;;;;0.30;0.23;;;;;;;;;;5072297;28;20051;-66
2022/09/28 05:51:58;;;;;;;0.70;0.40;;;;;;;;;;5071817;28;20024;-66
2022/09/28 05:54:24;;;;;;;0.77;0.60;;;;;;;;;;5072144;28;20406;-66
2022/09/28 05:56:51;;;;;;;0.30;0.30;;;;;;;;;;5067550;28;20029;-66
2022/09/28 05:59:18;;;;;;;0.33;0.30;;;;;;;;;;5066949;28;20505;-66
2022/09/28 06:01:44;;;;;;;0.80;0.40;;;;;;;;;;5066787;28;20028;-66
2022/09/28 06:04:11;;;;;;;1.37;0.50;;;;;;;;;;5070124;28;20036;-66
2022/09/28 06:06:38;;;;;;;0.50;0.40;;;;;;;;;;5074648;28;20064;-66
2022/09/28 06:09:05;;;;;;;0.40;0.40;;;;;;;;;;5075812;28;20382;-66
2022/09/28 06:11:32;;;;;;;0.80;0.50;;;;;;;;;;5075163;28;20017;-66
2022/09/28 06:13:59;;;;;;;0.20;0.20;;;;;;;;;;5075806;28;20029;-66
2022/09/28 06:16:25;;;;;;;0.80;0.50;;;;;;;;;;5076108;28;20016;-66
2022/09/28 06:18:52;;;;;;;0.20;0.20;;;;;;;;;;5071923;28;20502;-66
2022/09/28 06:21:19;;;;;;;0.30;0.20;;;;;;;;;;5070535;28;20077;-66
2022/09/28 06:23:45;;;;;;;1.13;0.60;;;;;;;;;;5070440;28;20012;-66
2022/09/28 06:26:12;;;;;;;0.60;0.23;;;;;;;;;;5069906;28;20027;-66
2022/09/28 06:28:39;;;;;;;0.20;0.20;;;;;;;;;;5073586;28;20349;-66
2022/09/28 06:31:05;;;;;;;0.10;0.10;;;;;;;;;;5075854;28;20048;-66
2022/09/28 06:33:34;;;;;;;0.23;0.20;;;;;;;;;;5075595;28;20103;-66
2022/09/28 06:36:01;;;;;;;0.30;0.20;;;;;;;;;;5075496;28;20025;-66
2022/09/28 06:38:28;;;;;;;0.53;0.40;;;;;;;;;;5075928;28;20429;-65
2022/09/28 06:40:56;;;;;;;0.37;0.30;;;;;;;;;;5071525;28;20640;-67
2022/09/28 06:43:23;;;;;;;1.37;0.70;;;;;;;;;;5070223;28;20027;-66
2022/09/28 06:45:53;;;;;;;2.00;0.97;;;;;;;;;;5052141;28;20548;-66
2022/09/28 06:48:20;;;;;;;1.33;0.73;;;;;;;;;;5070048;28;20032;-66
2022/09/28 06:50:47;;;;;;;0.40;0.40;;;;;;;;;;5072832;28;20028;-66
2022/09/28 06:53:14;;;;;;;0.90;0.60;;;;;;;;;;5075360;28;20020;-66
2022/09/28 06:55:42;;;;;;;0.67;0.60;;;;;;;;;;5074685;28;20031;-66
2022/09/28 06:58:13;;;;;;;1.17;0.83;;;;;;;;;;5075327;28;20017;-67
2022/09/28 07:00:40;;;;;;;1.00;0.70;;;;;;;;;;5075185;28;20020;-65
2022/09/28 07:03:08;;;;;;;2.20;0.87;;;;;;;;;;5072016;28;20028;-65
2022/09/28 07:05:36;;;;;;;1.27;0.77;;;;;;;;;;5070063;28;20025;-66
2022/09/28 07:08:04;;;;;;;3.20;1.67;;;;;;;;;;5069574;28;20029;-66
2022/09/28 07:10:31;;;;;;;1.43;0.80;;;;;;;;;;5069055;28;20021;-66
2022/09/28 07:13:01;;;;;;;0.80;0.67;;;;;;;;;;5072139;28;20032;-66
2022/09/28 07:15:31;;;;;;;0.70;0.60;;;;;;;;;;5074589;28;20017;-66
2022/09/28 07:17:59;;;;;;;0.63;0.47;;;;;;;;;;5074804;28;20379;-66
2022/09/28 07:20:26;;;;;;;3.93;0.80;;;;;;;;;;5074616;28;20027;-66
2022/09/28 07:22:53;;;;;;;0.70;0.50;;;;;;;;;;5074743;28;20016;-65
2022/09/28 07:25:20;;;;;;;1.23;0.70;;;;;;;;;;5071249;28;20025;-66
2022/09/28 07:27:47;;;;;;;10.73;0.67;;;;;;;;;;5069199;28;20033;-66
2022/09/28 07:30:14;;;;;;;1.50;0.90;;;;;;;;;;5069341;28;20024;-65
2022/09/28 07:32:41;;;;;;;1.43;0.57;;;;;;;;;;5069014;28;20033;-65
2022/09/28 07:35:08;;;;;;;4.73;0.83;;;;;;;;;;5071495;28;20016;-65
2022/09/28 07:37:35;;;;;;;0.93;0.43;;;;;;;;;;5074459;28;20099;-66
2022/09/28 07:42:51;;;;;;;0.37;0.20;;;;;;;;;;5074592;28;20129;-66
2022/09/28 07:45:19;;;;;;;1.30;0.50;;;;;;;;;;5074440;28;20071;-65
2022/09/28 07:47:46;;;;;;;0.73;0.53;;;;;;;;;;5071081;28;20760;-65
2022/09/28 07:50:13;;;;;;;0.10;0.10;;;;;;;;;;5068870;28;20096;-65
2022/09/28 07:52:42;;;;;;;0.57;0.37;;;;;;;;;;5069009;28;20063;-66
2022/09/28 07:55:08;;;;;;;0.37;0.33;;;;;;;;;;5068624;28;20032;-66
2022/09/28 07:57:35;;;;;;;10.73;0.77;;;;;;;;;;5071320;28;20031;-65
2022/09/28 08:00:04;;;;;;;0.30;0.20;;;;;;;;;;5074089;28;20429;-65
2022/09/28 08:02:32;;;;;;;0.73;0.50;;;;;;;;;;5073281;28;20033;-65
2022/09/28 08:04:59;;;;;;;0.53;0.50;;;;;;;;;;5073936;28;20032;-65
2022/09/28 08:07:26;;;;;;;0.60;0.40;;;;;;;;;;5073648;28;20483;-65
2022/09/28 08:09:52;;;;;;;0.50;0.50;;;;;;;;;;5070852;28;20078;-65
2022/09/28 08:12:20;;;;;;;0.70;0.43;;;;;;;;;;5068743;28;20206;-66
2022/09/28 08:14:48;;;;;;;0.87;0.40;;;;;;;;;;5068483;28;20479;-65
2022/09/28 08:17:14;;;;;;;0.60;0.43;;;;;;;;;;5067663;28;20066;-66
2022/09/28 08:22:29;;;;;;;0.90;0.73;;;;;;;;;;5073615;28;20043;-65
2022/09/28 08:24:55;;;;;;;1.03;0.77;;;;;;;;;;5073174;28;20040;-66
2022/09/28 08:27:22;;;;;;;0.60;0.53;;;;;;;;;;5073041;28;20114;-66
2022/09/28 08:29:49;;;;;;;0.97;0.70;;;;;;;;;;5073299;28;20365;-65
2022/09/28 08:32:16;;;;;;;1.07;0.73;;;;;;;;;;5070239;28;20033;-66
2022/09/28 08:34:43;;;;;;;0.40;0.40;;;;;;;;;;5068066;28;20134;-65
2022/09/28 08:37:10;;;;;;;0.73;0.63;;;;;;;;;;5067958;28;20024;-64
2022/09/28 08:39:37;;;;;;;0.50;0.50;;;;;;;;;;5067865;28;20034;-66
2022/09/28 08:42:22;;;;;;;1.27;0.97;;;;;;;;;;5069776;28;20032;-65
2022/09/28 08:44:56;;;;;;;1.02;0.47;;;;;;;;;;5073024;28;20028;-65
2022/09/28 08:50:20;;;;;;;1.07;0.60;;;;;;;;;;5073075;28;20051;-65
2022/09/28 08:52:51;;;;;;;0.70;0.50;;;;;;;;;;5073060;28;20357;-65
2022/09/28 08:55:30;;;;;;;0.57;0.47;;;;;;;;;;5068032;28;20099;-65
2022/09/28 08:58:03;;;;;;;0.43;0.43;;;;;;;;;;5067144;28;20035;-65
2022/09/28 09:00:33;;;;;;;2.93;0.30;;;;;;;;;;5067544;28;20056;-64
2022/09/28 09:03:03;;;;;;;0.73;0.53;;;;;;;;;;5067336;28;20036;-65
2022/09/28 09:05:42;;;;;;;0.30;0.23;;;;;;;;;;5071835;28;20040;-65
2022/09/28 09:08:27;;;;;;;0.23;0.17;;;;;;;;;;5072209;28;20032;-65
2022/09/28 09:10:57;;;;;;;1.65;1.05;;;;;;;;;;5072309;28;20484;-66
2022/09/28 09:13:33;;;;;;;0.60;0.50;;;;;;;;;;5072631;28;20096;-65
2022/09/28 09:16:06;;;;;;;1.80;0.70;;;;;;;;;;5071702;28;20107;-65
2022/09/28 09:18:36;;;;;;;0.53;0.43;;;;;;;;;;5067365;28;20024;-66
2022/09/28 09:21:35;;;;;;;1.60;0.70;;;;;;;;;;5067211;28;20017;-65
2022/09/28 09:24:26;;;;;;;0.20;0.20;;;;;;;;;;5023017;28;20036;-65
2022/09/28 09:27:04;;;;;;;0.57;0.47;;;;;;;;;;5069514;28;20035;-65
2022/09/28 09:29:35;;;;;;;1.10;0.70;;;;;;;;;;5072148;28;20031;-65
2022/09/28 09:32:20;;;;;;;0.60;0.53;;;;;;;;;;5071866;28;20028;-66
2022/09/28 09:35:04;;;;;;;0.50;0.50;;;;;;;;;;5072555;28;20056;-68
2022/09/28 09:37:33;;;;;;;0.43;0.40;;;;;;;;;;5071316;28;20025;-65
2022/09/28 09:40:00;;;;;;;0.50;0.50;;;;;;;;;;5067793;28;20024;-65
2022/09/28 09:42:36;;;;;;;0.80;0.60;;;;;;;;;;5066925;28;20028;-65
2022/09/28 09:45:23;;;;;;;0.80;0.60;;;;;;;;;;5067258;28;20028;-65
2022/09/28 09:47:53;;;;;;;0.10;0.10;;;;;;;;;;5015932;28;20064;-65
2022/09/28 09:50:29;;;;;;;0.10;0.10;;;;;;;;;;5051272;28;20037;-65
2022/09/28 09:53:02;;;;;;;0.50;0.40;;;;;;;;;;5052229;28;20055;-65
2022/09/28 09:55:40;;;;;;;0.60;0.50;;;;;;;;;;5052240;28;20075;-65
2022/09/28 09:58:10;;;;;;;0.30;0.27;;;;;;;;;;5052264;28;20029;-64
2022/09/28 10:00:41;;;;;;;0.33;0.30;;;;;;;;;;5050836;28;20017;-65
2022/09/28 10:03:15;;;;;;;0.30;0.30;;;;;;;;;;5058322;28;20032;-65
2022/09/28 10:05:43;;;;;;;0.30;0.30;;;;;;;;;;5066932;28;20021;-65
2022/09/28 10:08:10;;;;;;;0.33;0.33;;;;;;;;;;5066271;28;20041;-65
2022/09/28 10:10:57;;;;;;;0.70;0.37;;;;;;;;;;5067180;28;20029;-65
2022/09/28 10:13:24;;;;;;;0.50;0.50;;;;;;;;;;5058054;28;20040;-64
2022/09/28 10:15:51;;;;;;;0.53;0.43;;;;;;;;;;5072015;28;20017;-65
2022/09/28 10:18:20;;;;;;;0.53;0.43;;;;;;;;;;5071922;28;20020;-64
2022/09/28 10:20:47;;;;;;;2.63;0.60;;;;;;;;;;5071974;28;20031;-65
2022/09/28 10:23:21;;;;;;;0.30;0.30;;;;;;;;;;5069761;28;20032;-65
2022/09/28 10:25:49;;;;;;;0.90;0.68;;;;;;;;;;5066762;28;20360;-66
2022/09/28 10:28:19;;;;;;;0.87;0.77;;;;;;;;;;5066657;28;20037;-65
2022/09/28 10:30:45;;;;;;;0.33;0.30;;;;;;;;;;5066669;28;20047;-65
2022/09/28 10:33:32;;;;;;;1.53;0.70;;;;;;;;;;5067567;28;20383;-64
2022/09/28 10:36:04;;;;;;;0.77;0.70;;;;;;;;;;5071548;28;20463;-65
2022/09/28 10:38:31;;;;;;;0.70;0.60;;;;;;;;;;5071421;28;20538;-64
2022/09/28 10:40:59;;;;;;;0.57;0.43;;;;;;;;;;5053955;28;20426;-64
2022/09/28 10:43:39;;;;;;;0.60;0.40;;;;;;;;;;5071745;28;20074;-65
2022/09/28 10:46:08;;;;;;;0.63;0.43;;;;;;;;;;5068983;28;20533;-65
2022/09/28 10:48:50;;;;;;;0.40;0.40;;;;;;;;;;5066840;28;20068;-65
2022/09/28 10:51:17;;;;;;;0.50;0.47;;;;;;;;;;5070069;28;20024;-64
2022/09/28 10:54:04;;;;;;;1.00;0.57;;;;;;;;;;5070284;28;20025;-64
2022/09/28 10:56:35;;;;;;;0.87;0.53;;;;;;;;;;5072670;28;20510;-65
2022/09/28 10:59:02;;;;;;;0.30;0.30;;;;;;;;;;5075230;28;20021;-64
2022/09/28 11:01:31;;;;;;;1.13;0.70;;;;;;;;;;5075201;28;20021;-64
2022/09/28 11:04:02;;;;;;;0.33;0.30;;;;;;;;;;5074820;28;20052;-64
2022/09/28 11:06:30;;;;;;;0.47;0.43;;;;;;;;;;5075024;28;20087;-64
2022/09/28 11:08:58;;;;;;;2.53;1.07;;;;;;;;;;5070675;28;20036;-65
2022/09/28 11:11:25;;;;;;;0.50;0.50;;;;;;;;;;5069437;28;20029;-65
2022/09/28 11:13:54;;;;;;;1.07;0.67;;;;;;;;;;5069769;28;20032;-64
2022/09/28 11:16:24;;;;;;;5.80;0.63;;;;;;;;;;5069468;28;20021;-65
2022/09/28 11:18:50;;;;;;;0.80;0.60;;;;;;;;;;5072797;28;20085;-64
2022/09/28 11:21:27;;;;;;;0.20;0.20;;;;;;;;;;5074677;28;20070;-64
2022/09/28 11:23:57;;;;;;;0.53;0.40;;;;;;;;;;5074756;28;20032;-64
2022/09/28 11:26:24;;;;;;;0.77;0.50;;;;;;;;;;5074591;28;20020;-64
2022/09/28 11:28:52;;;;;;;0.47;0.47;;;;;;;;;;5074340;28;20518;-64
2022/09/28 11:31:28;;;;;;;0.83;0.57;;;;;;;;;;5070456;28;20033;-64
2022/09/28 11:34:03;;;;;;;0.90;0.80;;;;;;;;;;5069102;28;20029;-64
2022/09/28 11:36:39;;;;;;;1.40;0.90;;;;;;;;;;5069558;28;20368;-65
2022/09/28 11:39:16;;;;;;;0.60;0.50;;;;;;;;;;5051609;28;20369;-64
2022/09/28 11:41:58;;;;;;;0.47;0.40;;;;;;;;;;5073923;28;20047;-64
2022/09/28 11:44:34;;;;;;;0.50;0.40;;;;;;;;;;5074095;28;20106;-64
2022/09/28 11:47:25;;;;;;;0.50;0.47;;;;;;;;;;5074242;28;20028;-64
2022/09/28 11:50:18;;;;;;;0.70;0.50;;;;;;;;;;5074031;28;20021;-64
2022/09/28 11:52:52;;;;;;;0.70;0.63;;;;;;;;;;5068674;28;20086;-64
2022/09/28 11:55:22;;;;;;;0.85;0.55;;;;;;;;;;5068927;28;20024;-64
2022/09/28 11:57:54;;;;;;;0.70;0.50;;;;;;;;;;5068833;28;20051;-64
2022/09/28 12:00:21;;;;;;;0.83;0.60;;;;;;;;;;5068058;28;20039;-64
2022/09/28 12:03:07;;;;;;;2.50;0.80;;;;;;;;;;5070239;28;20024;-64
2022/09/28 12:05:41;;;;;;;0.23;0.23;;;;;;;;;;5073962;28;20025;-64
2022/09/28 12:08:26;;;;;;;0.20;0.20;;;;;;;;;;5073460;28;20028;-64
2022/09/28 12:10:53;;;;;;;;;;;;;;;;;;5074420;28;20070;-64
2022/09/28 12:13:24;;;;;;;1.00;0.70;;;;;;;;;;5073785;28;19910;-65
2022/09/28 12:16:02;;;;;;;0.40;0.40;;;;;;;;;;5069639;28;20021;-64
2022/09/28 12:18:44;;;;;;;1.17;0.60;;;;;;;;;;5068104;28;20064;-64
2022/09/28 12:21:29;;;;;;;1.20;0.73;;;;;;;;;;5068467;28;20036;-64
2022/09/28 12:24:16;;;;;;;0.45;0.45;;;;;;;;;;5068145;28;20032;-64
2022/09/28 12:27:04;;;;;;;0.73;0.53;;;;;;;;;;5073110;28;20033;-64
2022/09/28 12:29:34;;;;;;;1.30;0.80;;;;;;;;;;5073348;28;20031;-64
2022/09/28 12:32:03;;;;;;;1.00;0.73;;;;;;;;;;5072899;28;20032;-64
2022/09/28 12:34:30;;;;;;;0.60;0.60;;;;;;;;;;5073444;28;20046;-64
2022/09/28 12:36:57;;;;;;;0.80;0.77;;;;;;;;;;5072078;28;20376;-64
2022/09/28 12:39:38;;;;;;;0.47;0.30;;;;;;;;;;5068108;28;20031;-64
2022/09/28 12:42:26;;;;;;;0.87;0.57;;;;;;;;;;5067904;28;20025;-64
2022/09/28 12:44:54;;;;;;;0.67;0.50;;;;;;;;;;5067653;28;20051;-64
2022/09/28 12:47:26;;;;;;;0.50;0.50;;;;;;;;;;5069640;28;20024;-64
2022/09/28 12:50:14;;;;;;;1.13;0.90;;;;;;;;;;5073200;28;20476;-64
2022/09/28 12:52:56;;;;;;;2.20;1.37;;;;;;;;;;5073069;28;20029;-64
2022/09/28 12:55:41;;;;;;;1.53;0.67;;;;;;;;;;5072021;28;20032;-64
2022/09/28 12:58:11;;;;;;;1.58;0.50;;;;;;;;;;5072780;28;20031;-63
2022/09/28 13:00:48;;;;;;;0.73;0.67;;;;;;;;;;5068678;28;20032;-64
2022/09/28 13:03:15;;;;;;;0.47;0.47;;;;;;;;;;5067577;28;20024;-64
2022/09/28 13:06:17;;;;;;;0.50;0.50;;;;;;;;;;5066934;28;20056;-65
2022/09/28 13:08:57;;;;;;;8.87;1.90;;;;;;;;;;5001878;28;20769;-70
2022/09/28 13:11:23;;;;;;;1.70;1.53;;;;;;;;;;5063346;28;20046;-65
2022/09/28 13:14:08;;;;;;;1.03;0.90;;;;;;;;;;5072510;28;20025;-66
2022/09/28 13:16:35;;;;;;;8.65;4.32;;;;;;;;;;5072855;28;20042;-66
2022/09/28 13:19:10;;;;;;;3.50;2.53;;;;;;;;;;5072607;28;20753;-66
2022/09/28 13:21:36;;;;;;;;;;;;;;;;;;5071720;28;20031;-66
2022/09/28 13:24:04;;;;;;;2.07;1.77;;;;;;;;;;5067031;28;19917;-65
2022/09/28 13:26:35;;;;;;;6.20;3.47;;;;;;;;;;5067033;28;20027;-66
2022/09/28 13:29:21;;;;;;;4.63;1.80;;;;;;;;;;5066427;28;20019;-66
2022/09/28 13:31:50;;;;;;;1.38;1.20;;;;;;;;;;5068114;28;20027;-67
2022/09/28 13:34:25;;;;;;;2.40;1.57;;;;;;;;;;5072475;28;20370;-66
2022/09/28 13:37:10;;;;;;;2.95;1.73;;;;;;;;;;5072398;28;20052;-68
2022/09/28 13:39:45;;;;;;;2.05;1.23;;;;;;;;;;5072389;28;20503;-69
2022/09/28 13:42:28;;;;;;;1.67;1.00;;;;;;;;;;5071953;28;20506;-66
2022/09/28 13:44:54;;;;;;;2.20;0.90;;;;;;;;;;5068359;28;20399;-66
2022/09/28 13:47:30;;;;;;;2.93;1.43;;;;;;;;;;5066783;28;20028;-67
2022/09/28 13:50:05;;;;;;;1.17;0.87;;;;;;;;;;5066474;28;20032;-66
2022/09/28 13:52:35;;;;;;;0.37;0.37;;;;;;;;;;5066826;28;20024;-66
2022/09/28 13:55:21;;;;;;;0.90;0.60;;;;;;;;;;5070263;28;20510;-67
2022/09/28 13:57:51;;;;;;;1.10;0.60;;;;;;;;;;5071880;28;20137;-67
2022/09/28 14:00:26;;;;;;;0.90;0.70;;;;;;;;;;5072102;28;20028;-66
2022/09/28 14:03:00;;;;;;;1.10;0.85;;;;;;;;;;5072292;28;20357;-67
2022/09/28 14:05:37;;;;;;;1.07;0.77;;;;;;;;;;5072079;28;20024;-67
2022/09/28 14:08:19;;;;;;;4.57;1.17;;;;;;;;;;5066553;28;20028;-66
2022/09/28 14:10:50;;;;;;;1.07;0.77;;;;;;;;;;5066674;28;20051;-69
2022/09/28 14:13:35;;;;;;;1.30;0.80;;;;;;;;;;5066553;28;20097;-69
2022/09/28 14:16:31;;;;;;;1.52;0.77;;;;;;;;;;5046870;28;20199;-70
2022/09/28 14:19:02;;;;;;;1.10;0.70;;;;;;;;;;5049854;28;20033;-67
2022/09/28 14:21:38;;;;;;;0.93;0.70;;;;;;;;;;5051797;28;20100;-67
2022/09/28 14:24:12;;;;;;;1.33;0.80;;;;;;;;;;5052821;28;20033;-67
2022/09/28 14:26:42;;;;;;;0.47;0.32;;;;;;;;;;5055781;28;20074;-67
2022/09/28 14:29:28;;;;;;;0.83;0.60;;;;;;;;;;5053058;28;20028;-67
2022/09/28 14:31:57;;;;;;;0.40;0.40;;;;;;;;;;5065362;28;20107;-67
2022/09/28 14:34:35;;;;;;;3.40;0.90;;;;;;;;;;5070213;28;20596;-67
2022/09/28 14:42:33;;;;;;;1.23;0.73;;;;;;;;;;5075471;28;20589;-67
2022/09/28 14:45:03;;;;;;;0.70;0.57;;;;;;;;;;5075268;28;20502;-67
2022/09/28 14:47:37;;;;;;;1.03;0.80;;;;;;;;;;5074700;28;20033;-67
2022/09/28 14:50:22;;;;;;;2.17;0.73;;;;;;;;;;5074746;28;20392;-67
2022/09/28 14:52:55;;;;;;;1.45;0.88;;;;;;;;;;5069992;28;20033;-67
2022/09/28 14:55:31;;;;;;;0.50;0.50;;;;;;;;;;5069817;28;20538;-67
2022/09/28 14:57:58;;;;;;;0.70;0.60;;;;;;;;;;5069729;28;20060;-67
2022/09/28 15:00:28;;;;;;;0.73;0.53;;;;;;;;;;5069492;28;20031;-67
2022/09/28 15:02:56;;;;;;;2.00;0.77;;;;;;;;;;5075146;28;20680;-67
2022/09/28 15:05:23;;;;;;;5.90;0.57;;;;;;;;;;5074616;28;20032;-67
2022/09/28 15:07:51;;;;;;;2.07;0.77;;;;;;;;;;5074797;28;20044;-67
2022/09/28 15:10:30;;;;;;;0.50;0.40;;;;;;;;;;5074890;28;20353;-67
2022/09/28 15:12:58;;;;;;;0.97;0.60;;;;;;;;;;5073869;28;20112;-67
2022/09/28 15:15:34;;;;;;;1.27;0.60;;;;;;;;;;5068583;28;20025;-67
2022/09/28 15:18:06;;;;;;;0.70;0.40;;;;;;;;;;5068956;28;20048;-69
2022/09/28 15:20:40;;;;;;;0.40;0.40;;;;;;;;;;5068959;28;20495;-69
2022/09/28 15:23:24;;;;;;;0.80;0.50;;;;;;;;;;5070103;28;20040;-69
2022/09/28 15:25:51;;;;;;;0.80;0.50;;;;;;;;;;5074730;28;20032;-69